sensor_id;sensor_type;location;lat;lon;timestamp;P1;durP1;ratioP1;P2;durP2;ratioP2
84933;SDS011;75195;56.858;41.422;2024-01-30T00:00:05;8.77;;;3.65;;
84933;SDS011;75195;56.858;41.422;2024-01-30T00:02:32;7.25;;;3.35;;
84933;SDS011;75195;56.858;41.422;2024-01-30T00:04:59;9.35;;;3.67;;
84933;SDS011;75195;56.858;41.422;2024-01-30T00:07:25;8.18;;;3.55;;
84933;SDS011;75195;56.858;41.422;2024-01-30T00:09:52;6.95;;;3.65;;
84933;SDS011;75195;56.858;41.422;2024-01-30T00:12:18;8.68;;;3.95;;
84933;SDS011;75195;56.858;41.422;2024-01-30T00:14:45;10.48;;;4.15;;
84933;SDS011;75195;56.858;41.422;2024-01-30T00:17:12;7.13;;;3.58;;
84933;SDS011;75195;56.858;41.422;2024-01-30T00:19:38;6.68;;;2.92;;
84933;SDS011;75195;56.858;41.422;2024-01-30T00:22:04;7.95;;;3.60;;
84933;SDS011;75195;56.858;41.422;2024-01-30T00:24:31;8.65;;;4.22;;
84933;SDS011;75195;56.858;41.422;2024-01-30T00:26:57;8.23;;;3.65;;
84933;SDS011;75195;56.858;41.422;2024-01-30T00:29:23;9.43;;;4.25;;
84933;SDS011;75195;56.858;41.422;2024-01-30T00:31:51;9.48;;;4.18;;
84933;SDS011;75195;56.858;41.422;2024-01-30T00:34:18;5.32;;;3.03;;
84933;SDS011;75195;56.858;41.422;2024-01-30T00:36:44;5.88;;;3.50;;
84933;SDS011;75195;56.858;41.422;2024-01-30T00:39:10;7.43;;;3.42;;
84933;SDS011;75195;56.858;41.422;2024-01-30T00:41:37;7.05;;;3.40;;
84933;SDS011;75195;56.858;41.422;2024-01-30T00:44:04;7.35;;;3.42;;
84933;SDS011;75195;56.858;41.422;2024-01-30T00:46:30;9.05;;;3.90;;
84933;SDS011;75195;56.858;41.422;2024-01-30T00:48:56;6.68;;;3.30;;
84933;SDS011;75195;56.858;41.422;2024-01-30T00:51:23;5.88;;;2.80;;
84933;SDS011;75195;56.858;41.422;2024-01-30T00:53:49;7.53;;;3.25;;
84933;SDS011;75195;56.858;41.422;2024-01-30T00:56:16;5.03;;;2.58;;
84933;SDS011;75195;56.858;41.422;2024-01-30T00:58:44;6.55;;;3.60;;
84933;SDS011;75195;56.858;41.422;2024-01-30T01:01:10;8.35;;;2.90;;
84933;SDS011;75195;56.858;41.422;2024-01-30T01:03:37;7.70;;;2.85;;
84933;SDS011;75195;56.858;41.422;2024-01-30T01:06:03;5.60;;;2.35;;
84933;SDS011;75195;56.858;41.422;2024-01-30T01:08:30;7.03;;;3.00;;
84933;SDS011;75195;56.858;41.422;2024-01-30T01:10:56;4.90;;;2.65;;
84933;SDS011;75195;56.858;41.422;2024-01-30T01:13:23;5.93;;;2.30;;
84933;SDS011;75195;56.858;41.422;2024-01-30T01:15:49;4.60;;;2.60;;
84933;SDS011;75195;56.858;41.422;2024-01-30T01:18:16;6.78;;;3.00;;
84933;SDS011;75195;56.858;41.422;2024-01-30T01:20:42;5.18;;;2.35;;
84933;SDS011;75195;56.858;41.422;2024-01-30T01:23:08;8.75;;;3.35;;
84933;SDS011;75195;56.858;41.422;2024-01-30T01:25:34;5.47;;;2.92;;
84933;SDS011;75195;56.858;41.422;2024-01-30T01:28:01;4.65;;;2.85;;
84933;SDS011;75195;56.858;41.422;2024-01-30T01:30:27;6.85;;;2.90;;
84933;SDS011;75195;56.858;41.422;2024-01-30T01:32:55;7.30;;;3.58;;
84933;SDS011;75195;56.858;41.422;2024-01-30T01:35:23;4.88;;;2.42;;
84933;SDS011;75195;56.858;41.422;2024-01-30T01:37:53;8.98;;;3.75;;
84933;SDS011;75195;56.858;41.422;2024-01-30T01:40:26;5.53;;;2.67;;
84933;SDS011;75195;56.858;41.422;2024-01-30T01:42:53;5.32;;;2.63;;
84933;SDS011;75195;56.858;41.422;2024-01-30T01:45:20;6.72;;;2.85;;
84933;SDS011;75195;56.858;41.422;2024-01-30T01:47:51;4.60;;;2.70;;
84933;SDS011;75195;56.858;41.422;2024-01-30T01:50:18;6.00;;;2.50;;
84933;SDS011;75195;56.858;41.422;2024-01-30T01:52:46;5.72;;;2.53;;
84933;SDS011;75195;56.858;41.422;2024-01-30T01:55:14;5.13;;;2.60;;
84933;SDS011;75195;56.858;41.422;2024-01-30T01:57:41;5.95;;;3.08;;
84933;SDS011;75195;56.858;41.422;2024-01-30T02:00:08;5.03;;;2.38;;
84933;SDS011;75195;56.858;41.422;2024-01-30T02:02:36;6.82;;;3.08;;
84933;SDS011;75195;56.858;41.422;2024-01-30T02:05:03;5.90;;;2.80;;
84933;SDS011;75195;56.858;41.422;2024-01-30T02:07:31;7.15;;;3.80;;
84933;SDS011;75195;56.858;41.422;2024-01-30T02:09:57;5.88;;;2.78;;
84933;SDS011;75195;56.858;41.422;2024-01-30T02:12:24;6.70;;;2.63;;
84933;SDS011;75195;56.858;41.422;2024-01-30T02:14:51;8.88;;;3.13;;
84933;SDS011;75195;56.858;41.422;2024-01-30T02:17:20;5.40;;;2.58;;
84933;SDS011;75195;56.858;41.422;2024-01-30T02:19:47;8.02;;;3.15;;
84933;SDS011;75195;56.858;41.422;2024-01-30T02:22:13;5.68;;;3.03;;
84933;SDS011;75195;56.858;41.422;2024-01-30T02:24:39;6.03;;;3.00;;
84933;SDS011;75195;56.858;41.422;2024-01-30T02:27:06;7.78;;;3.20;;
84933;SDS011;75195;56.858;41.422;2024-01-30T02:29:33;5.28;;;2.63;;
84933;SDS011;75195;56.858;41.422;2024-01-30T02:31:59;5.25;;;2.65;;
84933;SDS011;75195;56.858;41.422;2024-01-30T02:34:25;5.18;;;2.47;;
84933;SDS011;75195;56.858;41.422;2024-01-30T02:36:52;5.30;;;2.50;;
84933;SDS011;75195;56.858;41.422;2024-01-30T02:39:18;4.47;;;2.63;;
84933;SDS011;75195;56.858;41.422;2024-01-30T02:41:44;4.70;;;2.70;;
84933;SDS011;75195;56.858;41.422;2024-01-30T02:44:11;6.68;;;2.67;;
84933;SDS011;75195;56.858;41.422;2024-01-30T02:46:37;13.18;;;4.85;;
84933;SDS011;75195;56.858;41.422;2024-01-30T02:49:03;18.33;;;6.60;;
84933;SDS011;75195;56.858;41.422;2024-01-30T02:51:30;7.88;;;3.65;;
84933;SDS011;75195;56.858;41.422;2024-01-30T02:53:56;6.43;;;2.85;;
84933;SDS011;75195;56.858;41.422;2024-01-30T02:56:23;6.88;;;4.05;;
84933;SDS011;75195;56.858;41.422;2024-01-30T02:58:49;6.40;;;3.63;;
84933;SDS011;75195;56.858;41.422;2024-01-30T03:01:16;9.05;;;4.78;;
84933;SDS011;75195;56.858;41.422;2024-01-30T03:03:42;7.82;;;4.50;;
84933;SDS011;75195;56.858;41.422;2024-01-30T03:06:09;5.78;;;3.22;;
84933;SDS011;75195;56.858;41.422;2024-01-30T03:08:35;5.45;;;3.22;;
84933;SDS011;75195;56.858;41.422;2024-01-30T03:11:01;7.25;;;3.10;;
84933;SDS011;75195;56.858;41.422;2024-01-30T03:13:28;8.45;;;3.50;;
84933;SDS011;75195;56.858;41.422;2024-01-30T03:15:55;7.28;;;3.25;;
84933;SDS011;75195;56.858;41.422;2024-01-30T03:18:21;9.65;;;2.72;;
84933;SDS011;75195;56.858;41.422;2024-01-30T03:20:47;4.72;;;2.78;;
84933;SDS011;75195;56.858;41.422;2024-01-30T03:23:14;4.18;;;2.92;;
84933;SDS011;75195;56.858;41.422;2024-01-30T03:25:40;7.47;;;3.17;;
84933;SDS011;75195;56.858;41.422;2024-01-30T03:28:06;5.53;;;2.97;;
84933;SDS011;75195;56.858;41.422;2024-01-30T03:30:34;6.93;;;2.97;;
84933;SDS011;75195;56.858;41.422;2024-01-30T03:33:00;7.55;;;3.25;;
84933;SDS011;75195;56.858;41.422;2024-01-30T03:35:27;4.47;;;2.55;;
84933;SDS011;75195;56.858;41.422;2024-01-30T03:37:54;5.90;;;2.92;;
84933;SDS011;75195;56.858;41.422;2024-01-30T03:40:21;6.03;;;2.63;;
84933;SDS011;75195;56.858;41.422;2024-01-30T03:42:47;6.63;;;3.50;;
84933;SDS011;75195;56.858;41.422;2024-01-30T03:45:14;7.50;;;3.13;;
84933;SDS011;75195;56.858;41.422;2024-01-30T03:47:40;5.88;;;2.65;;
84933;SDS011;75195;56.858;41.422;2024-01-30T03:50:09;5.15;;;3.05;;
84933;SDS011;75195;56.858;41.422;2024-01-30T03:52:36;5.03;;;3.42;;
84933;SDS011;75195;56.858;41.422;2024-01-30T03:55:02;4.63;;;3.00;;
84933;SDS011;75195;56.858;41.422;2024-01-30T03:57:30;6.18;;;3.30;;
84933;SDS011;75195;56.858;41.422;2024-01-30T03:59:56;7.45;;;3.85;;
84933;SDS011;75195;56.858;41.422;2024-01-30T04:02:23;6.57;;;3.05;;
84933;SDS011;75195;56.858;41.422;2024-01-30T04:04:49;9.50;;;3.58;;
84933;SDS011;75195;56.858;41.422;2024-01-30T04:07:16;6.88;;;3.50;;
84933;SDS011;75195;56.858;41.422;2024-01-30T04:09:42;5.45;;;3.63;;
84933;SDS011;75195;56.858;41.422;2024-01-30T04:12:09;6.82;;;3.38;;
84933;SDS011;75195;56.858;41.422;2024-01-30T04:14:35;7.78;;;4.35;;
84933;SDS011;75195;56.858;41.422;2024-01-30T04:17:04;8.88;;;4.38;;
84933;SDS011;75195;56.858;41.422;2024-01-30T04:19:30;7.90;;;4.07;;
84933;SDS011;75195;56.858;41.422;2024-01-30T04:21:56;6.63;;;3.33;;
84933;SDS011;75195;56.858;41.422;2024-01-30T04:24:23;6.72;;;3.83;;
84933;SDS011;75195;56.858;41.422;2024-01-30T04:26:49;9.90;;;4.03;;
84933;SDS011;75195;56.858;41.422;2024-01-30T04:29:16;7.32;;;3.78;;
84933;SDS011;75195;56.858;41.422;2024-01-30T04:31:42;8.68;;;4.20;;
84933;SDS011;75195;56.858;41.422;2024-01-30T04:34:09;9.50;;;4.40;;
84933;SDS011;75195;56.858;41.422;2024-01-30T04:36:35;9.18;;;3.92;;
84933;SDS011;75195;56.858;41.422;2024-01-30T04:39:01;8.27;;;3.78;;
84933;SDS011;75195;56.858;41.422;2024-01-30T04:41:30;8.60;;;3.78;;
84933;SDS011;75195;56.858;41.422;2024-01-30T04:43:57;8.23;;;3.70;;
84933;SDS011;75195;56.858;41.422;2024-01-30T04:46:24;7.05;;;3.65;;
84933;SDS011;75195;56.858;41.422;2024-01-30T04:48:50;9.65;;;3.67;;
84933;SDS011;75195;56.858;41.422;2024-01-30T04:51:17;6.80;;;4.25;;
84933;SDS011;75195;56.858;41.422;2024-01-30T04:53:43;9.65;;;4.38;;
84933;SDS011;75195;56.858;41.422;2024-01-30T04:56:09;10.73;;;4.95;;
84933;SDS011;75195;56.858;41.422;2024-01-30T04:58:36;9.23;;;4.57;;
84933;SDS011;75195;56.858;41.422;2024-01-30T05:01:02;8.85;;;4.75;;
84933;SDS011;75195;56.858;41.422;2024-01-30T05:03:32;8.55;;;5.07;;
84933;SDS011;75195;56.858;41.422;2024-01-30T05:06:00;10.57;;;4.97;;
84933;SDS011;75195;56.858;41.422;2024-01-30T05:08:27;9.20;;;4.65;;
84933;SDS011;75195;56.858;41.422;2024-01-30T05:10:53;11.73;;;5.88;;
84933;SDS011;75195;56.858;41.422;2024-01-30T05:13:19;8.90;;;5.15;;
84933;SDS011;75195;56.858;41.422;2024-01-30T05:15:46;8.10;;;4.75;;
84933;SDS011;75195;56.858;41.422;2024-01-30T05:18:12;12.82;;;5.70;;
84933;SDS011;75195;56.858;41.422;2024-01-30T05:20:39;9.23;;;5.15;;
84933;SDS011;75195;56.858;41.422;2024-01-30T05:23:05;16.48;;;5.55;;
84933;SDS011;75195;56.858;41.422;2024-01-30T05:25:32;15.38;;;5.68;;
84933;SDS011;75195;56.858;41.422;2024-01-30T05:27:58;12.48;;;5.45;;
84933;SDS011;75195;56.858;41.422;2024-01-30T05:30:24;14.65;;;6.47;;
84933;SDS011;75195;56.858;41.422;2024-01-30T05:32:51;14.73;;;6.60;;
84933;SDS011;75195;56.858;41.422;2024-01-30T05:35:18;9.82;;;4.90;;
84933;SDS011;75195;56.858;41.422;2024-01-30T05:37:48;10.18;;;5.70;;
84933;SDS011;75195;56.858;41.422;2024-01-30T05:40:16;13.23;;;6.32;;
84933;SDS011;75195;56.858;41.422;2024-01-30T05:42:44;14.25;;;5.82;;
84933;SDS011;75195;56.858;41.422;2024-01-30T05:45:10;13.05;;;5.80;;
84933;SDS011;75195;56.858;41.422;2024-01-30T05:47:37;12.73;;;5.95;;
84933;SDS011;75195;56.858;41.422;2024-01-30T05:50:03;12.32;;;5.75;;
84933;SDS011;75195;56.858;41.422;2024-01-30T05:52:30;14.50;;;6.78;;
84933;SDS011;75195;56.858;41.422;2024-01-30T05:54:57;11.15;;;5.55;;
84933;SDS011;75195;56.858;41.422;2024-01-30T05:57:23;10.25;;;5.75;;
84933;SDS011;75195;56.858;41.422;2024-01-30T05:59:49;12.50;;;5.85;;
84933;SDS011;75195;56.858;41.422;2024-01-30T06:02:17;9.27;;;4.93;;
84933;SDS011;75195;56.858;41.422;2024-01-30T06:04:44;14.80;;;5.72;;
84933;SDS011;75195;56.858;41.422;2024-01-30T06:07:10;10.77;;;5.05;;
84933;SDS011;75195;56.858;41.422;2024-01-30T06:09:37;7.80;;;4.45;;
84933;SDS011;75195;56.858;41.422;2024-01-30T06:12:05;10.35;;;5.25;;
84933;SDS011;75195;56.858;41.422;2024-01-30T06:14:32;8.90;;;4.60;;
84933;SDS011;75195;56.858;41.422;2024-01-30T06:16:59;10.77;;;4.80;;
84933;SDS011;75195;56.858;41.422;2024-01-30T06:19:25;11.60;;;4.85;;
84933;SDS011;75195;56.858;41.422;2024-01-30T06:21:53;9.70;;;5.13;;
84933;SDS011;75195;56.858;41.422;2024-01-30T06:24:19;9.05;;;4.25;;
84933;SDS011;75195;56.858;41.422;2024-01-30T06:26:45;9.50;;;3.95;;
84933;SDS011;75195;56.858;41.422;2024-01-30T06:29:12;8.45;;;4.25;;
84933;SDS011;75195;56.858;41.422;2024-01-30T06:31:41;10.15;;;4.18;;
84933;SDS011;75195;56.858;41.422;2024-01-30T06:34:09;10.55;;;4.18;;
84933;SDS011;75195;56.858;41.422;2024-01-30T06:36:35;9.65;;;4.50;;
84933;SDS011;75195;56.858;41.422;2024-01-30T06:39:02;11.88;;;4.68;;
84933;SDS011;75195;56.858;41.422;2024-01-30T06:41:28;10.13;;;3.25;;
84933;SDS011;75195;56.858;41.422;2024-01-30T06:43:55;11.35;;;4.55;;
84933;SDS011;75195;56.858;41.422;2024-01-30T06:46:22;8.27;;;3.72;;
84933;SDS011;75195;56.858;41.422;2024-01-30T06:48:49;12.23;;;4.50;;
84933;SDS011;75195;56.858;41.422;2024-01-30T06:51:15;8.68;;;4.25;;
84933;SDS011;75195;56.858;41.422;2024-01-30T06:53:41;8.02;;;4.35;;
84933;SDS011;75195;56.858;41.422;2024-01-30T06:56:08;8.15;;;4.35;;
84933;SDS011;75195;56.858;41.422;2024-01-30T06:58:34;8.93;;;4.50;;
84933;SDS011;75195;56.858;41.422;2024-01-30T07:01:00;9.85;;;4.90;;
84933;SDS011;75195;56.858;41.422;2024-01-30T07:03:27;12.00;;;6.53;;
84933;SDS011;75195;56.858;41.422;2024-01-30T07:05:54;10.20;;;4.63;;
84933;SDS011;75195;56.858;41.422;2024-01-30T07:08:20;11.75;;;4.70;;
84933;SDS011;75195;56.858;41.422;2024-01-30T07:10:46;16.42;;;9.68;;
84933;SDS011;75195;56.858;41.422;2024-01-30T07:13:13;10.70;;;4.07;;
84933;SDS011;75195;56.858;41.422;2024-01-30T07:15:42;10.27;;;4.30;;
84933;SDS011;75195;56.858;41.422;2024-01-30T07:18:09;8.65;;;4.68;;
84933;SDS011;75195;56.858;41.422;2024-01-30T07:20:35;8.05;;;4.38;;
84933;SDS011;75195;56.858;41.422;2024-01-30T07:23:02;9.48;;;4.80;;
84933;SDS011;75195;56.858;41.422;2024-01-30T07:25:29;8.18;;;4.43;;
84933;SDS011;75195;56.858;41.422;2024-01-30T07:27:56;12.30;;;4.82;;
84933;SDS011;75195;56.858;41.422;2024-01-30T07:30:23;15.68;;;5.35;;
84933;SDS011;75195;56.858;41.422;2024-01-30T07:32:50;8.45;;;4.40;;
84933;SDS011;75195;56.858;41.422;2024-01-30T07:35:16;13.38;;;4.85;;
84933;SDS011;75195;56.858;41.422;2024-01-30T07:37:42;11.90;;;4.72;;
84933;SDS011;75195;56.858;41.422;2024-01-30T07:40:09;6.78;;;4.57;;
84933;SDS011;75195;56.858;41.422;2024-01-30T07:42:35;10.93;;;4.47;;
84933;SDS011;75195;56.858;41.422;2024-01-30T07:45:02;9.35;;;4.35;;
84933;SDS011;75195;56.858;41.422;2024-01-30T07:47:30;9.18;;;3.83;;
84933;SDS011;75195;56.858;41.422;2024-01-30T07:49:56;11.07;;;4.40;;
84933;SDS011;75195;56.858;41.422;2024-01-30T07:52:22;12.30;;;4.45;;
84933;SDS011;75195;56.858;41.422;2024-01-30T07:54:49;9.98;;;4.47;;
84933;SDS011;75195;56.858;41.422;2024-01-30T07:57:16;8.55;;;4.47;;
84933;SDS011;75195;56.858;41.422;2024-01-30T07:59:43;12.88;;;3.95;;
84933;SDS011;75195;56.858;41.422;2024-01-30T08:02:11;8.43;;;4.10;;
84933;SDS011;75195;56.858;41.422;2024-01-30T08:04:41;11.73;;;4.53;;
84933;SDS011;75195;56.858;41.422;2024-01-30T08:07:09;7.70;;;3.72;;
84933;SDS011;75195;56.858;41.422;2024-01-30T08:09:35;7.82;;;3.70;;
84933;SDS011;75195;56.858;41.422;2024-01-30T08:12:01;8.00;;;4.63;;
84933;SDS011;75195;56.858;41.422;2024-01-30T08:14:28;9.85;;;4.45;;
84933;SDS011;75195;56.858;41.422;2024-01-30T08:16:54;10.10;;;3.85;;
84933;SDS011;75195;56.858;41.422;2024-01-30T08:19:21;7.82;;;3.40;;
84933;SDS011;75195;56.858;41.422;2024-01-30T08:21:47;9.57;;;3.88;;
84933;SDS011;75195;56.858;41.422;2024-01-30T08:24:14;9.65;;;4.10;;
84933;SDS011;75195;56.858;41.422;2024-01-30T08:26:40;7.13;;;3.88;;
84933;SDS011;75195;56.858;41.422;2024-01-30T08:29:07;12.45;;;4.00;;
84933;SDS011;75195;56.858;41.422;2024-01-30T08:31:33;8.43;;;3.60;;
84933;SDS011;75195;56.858;41.422;2024-01-30T08:33:59;8.10;;;4.03;;
84933;SDS011;75195;56.858;41.422;2024-01-30T08:36:26;10.30;;;4.15;;
84933;SDS011;75195;56.858;41.422;2024-01-30T08:38:52;10.77;;;4.30;;
84933;SDS011;75195;56.858;41.422;2024-01-30T08:41:19;8.13;;;3.88;;
84933;SDS011;75195;56.858;41.422;2024-01-30T08:43:45;7.15;;;3.67;;
84933;SDS011;75195;56.858;41.422;2024-01-30T08:46:12;8.23;;;3.53;;
84933;SDS011;75195;56.858;41.422;2024-01-30T08:48:38;10.05;;;3.60;;
84933;SDS011;75195;56.858;41.422;2024-01-30T08:51:05;8.80;;;3.60;;
84933;SDS011;75195;56.858;41.422;2024-01-30T08:53:34;7.55;;;3.88;;
84933;SDS011;75195;56.858;41.422;2024-01-30T08:56:02;9.25;;;3.88;;
84933;SDS011;75195;56.858;41.422;2024-01-30T08:58:29;11.57;;;3.60;;
84933;SDS011;75195;56.858;41.422;2024-01-30T09:00:55;9.02;;;3.83;;
84933;SDS011;75195;56.858;41.422;2024-01-30T09:03:22;8.30;;;4.22;;
84933;SDS011;75195;56.858;41.422;2024-01-30T09:05:48;6.32;;;3.70;;
84933;SDS011;75195;56.858;41.422;2024-01-30T09:08:14;6.55;;;3.47;;
84933;SDS011;75195;56.858;41.422;2024-01-30T09:10:41;5.57;;;3.22;;
84933;SDS011;75195;56.858;41.422;2024-01-30T09:13:07;7.90;;;3.70;;
84933;SDS011;75195;56.858;41.422;2024-01-30T09:15:34;7.85;;;3.28;;
84933;SDS011;75195;56.858;41.422;2024-01-30T09:18:01;7.97;;;3.75;;
84933;SDS011;75195;56.858;41.422;2024-01-30T09:20:27;10.07;;;3.47;;
84933;SDS011;75195;56.858;41.422;2024-01-30T09:22:53;7.25;;;3.00;;
84933;SDS011;75195;56.858;41.422;2024-01-30T09:25:20;6.70;;;3.17;;
84933;SDS011;75195;56.858;41.422;2024-01-30T09:27:46;7.55;;;3.15;;
84933;SDS011;75195;56.858;41.422;2024-01-30T09:30:12;6.88;;;3.15;;
84933;SDS011;75195;56.858;41.422;2024-01-30T09:32:39;7.47;;;3.58;;
84933;SDS011;75195;56.858;41.422;2024-01-30T09:35:06;8.57;;;4.25;;
84933;SDS011;75195;56.858;41.422;2024-01-30T09:37:32;11.25;;;4.32;;
84933;SDS011;75195;56.858;41.422;2024-01-30T09:39:59;7.57;;;3.35;;
84933;SDS011;75195;56.858;41.422;2024-01-30T09:42:35;6.35;;;3.40;;
84933;SDS011;75195;56.858;41.422;2024-01-30T09:45:02;12.20;;;3.30;;
84933;SDS011;75195;56.858;41.422;2024-01-30T09:47:36;5.15;;;3.00;;
84933;SDS011;75195;56.858;41.422;2024-01-30T09:50:08;6.45;;;3.10;;
84933;SDS011;75195;56.858;41.422;2024-01-30T09:52:35;5.53;;;3.67;;
84933;SDS011;75195;56.858;41.422;2024-01-30T09:55:02;8.82;;;3.55;;
84933;SDS011;75195;56.858;41.422;2024-01-30T09:57:30;7.55;;;3.53;;
84933;SDS011;75195;56.858;41.422;2024-01-30T09:59:57;7.70;;;3.55;;
84933;SDS011;75195;56.858;41.422;2024-01-30T10:02:23;9.70;;;3.35;;
84933;SDS011;75195;56.858;41.422;2024-01-30T10:04:51;12.52;;;3.58;;
84933;SDS011;75195;56.858;41.422;2024-01-30T10:07:18;12.70;;;3.67;;
84933;SDS011;75195;56.858;41.422;2024-01-30T10:09:45;10.57;;;3.63;;
84933;SDS011;75195;56.858;41.422;2024-01-30T10:12:12;11.98;;;3.97;;
84933;SDS011;75195;56.858;41.422;2024-01-30T10:14:39;8.18;;;3.35;;
84933;SDS011;75195;56.858;41.422;2024-01-30T10:17:09;6.60;;;3.35;;
84933;SDS011;75195;56.858;41.422;2024-01-30T10:19:36;5.47;;;3.22;;
84933;SDS011;75195;56.858;41.422;2024-01-30T10:22:04;8.88;;;2.88;;
84933;SDS011;75195;56.858;41.422;2024-01-30T10:24:30;7.05;;;3.50;;
84933;SDS011;75195;56.858;41.422;2024-01-30T10:26:57;5.75;;;3.35;;
84933;SDS011;75195;56.858;41.422;2024-01-30T10:29:24;8.25;;;2.88;;
84933;SDS011;75195;56.858;41.422;2024-01-30T10:31:57;9.02;;;3.20;;
84933;SDS011;75195;56.858;41.422;2024-01-30T10:34:27;11.88;;;3.28;;
84933;SDS011;75195;56.858;41.422;2024-01-30T10:39:41;6.72;;;3.70;;
84933;SDS011;75195;56.858;41.422;2024-01-30T10:42:14;7.88;;;3.72;;
84933;SDS011;75195;56.858;41.422;2024-01-30T10:44:44;7.55;;;3.90;;
84933;SDS011;75195;56.858;41.422;2024-01-30T10:47:26;7.10;;;3.45;;
84933;SDS011;75195;56.858;41.422;2024-01-30T10:49:54;10.52;;;3.85;;
84933;SDS011;75195;56.858;41.422;2024-01-30T10:52:22;6.93;;;3.40;;
84933;SDS011;75195;56.858;41.422;2024-01-30T10:54:51;10.52;;;4.10;;
84933;SDS011;75195;56.858;41.422;2024-01-30T10:57:19;10.32;;;3.88;;
84933;SDS011;75195;56.858;41.422;2024-01-30T10:59:49;8.10;;;3.15;;
84933;SDS011;75195;56.858;41.422;2024-01-30T11:02:16;7.38;;;3.47;;
84933;SDS011;75195;56.858;41.422;2024-01-30T11:04:43;8.27;;;4.05;;
84933;SDS011;75195;56.858;41.422;2024-01-30T11:07:16;7.70;;;3.63;;
84933;SDS011;75195;56.858;41.422;2024-01-30T11:09:53;7.70;;;3.75;;
84933;SDS011;75195;56.858;41.422;2024-01-30T11:12:23;8.00;;;3.63;;
84933;SDS011;75195;56.858;41.422;2024-01-30T11:17:41;8.90;;;4.18;;
84933;SDS011;75195;56.858;41.422;2024-01-30T11:20:11;13.25;;;4.40;;
84933;SDS011;75195;56.858;41.422;2024-01-30T11:22:41;11.30;;;5.55;;
84933;SDS011;75195;56.858;41.422;2024-01-30T11:25:32;9.10;;;4.53;;
84933;SDS011;75195;56.858;41.422;2024-01-30T11:27:59;12.15;;;4.18;;
84933;SDS011;75195;56.858;41.422;2024-01-30T11:30:27;8.65;;;3.75;;
84933;SDS011;75195;56.858;41.422;2024-01-30T11:33:09;8.38;;;3.47;;
84933;SDS011;75195;56.858;41.422;2024-01-30T11:35:38;7.07;;;3.05;;
84933;SDS011;75195;56.858;41.422;2024-01-30T11:38:06;7.25;;;3.58;;
84933;SDS011;75195;56.858;41.422;2024-01-30T11:40:33;10.73;;;3.88;;
84933;SDS011;75195;56.858;41.422;2024-01-30T11:43:02;12.13;;;3.95;;
84933;SDS011;75195;56.858;41.422;2024-01-30T11:45:30;8.98;;;4.05;;
84933;SDS011;75195;56.858;41.422;2024-01-30T11:47:57;7.72;;;3.38;;
84933;SDS011;75195;56.858;41.422;2024-01-30T11:50:26;10.85;;;3.80;;
84933;SDS011;75195;56.858;41.422;2024-01-30T11:52:54;6.35;;;3.45;;
84933;SDS011;75195;56.858;41.422;2024-01-30T11:55:22;8.55;;;3.67;;
84933;SDS011;75195;56.858;41.422;2024-01-30T11:57:49;8.93;;;3.92;;
84933;SDS011;75195;56.858;41.422;2024-01-30T12:00:16;8.23;;;3.90;;
84933;SDS011;75195;56.858;41.422;2024-01-30T12:02:49;10.82;;;4.47;;
84933;SDS011;75195;56.858;41.422;2024-01-30T12:05:22;9.27;;;3.28;;
84933;SDS011;75195;56.858;41.422;2024-01-30T12:07:49;5.00;;;2.92;;
84933;SDS011;75195;56.858;41.422;2024-01-30T12:10:16;7.13;;;3.38;;
84933;SDS011;75195;56.858;41.422;2024-01-30T12:12:45;6.22;;;3.25;;
84933;SDS011;75195;56.858;41.422;2024-01-30T12:15:13;6.38;;;3.15;;
84933;SDS011;75195;56.858;41.422;2024-01-30T12:17:42;5.18;;;3.17;;
84933;SDS011;75195;56.858;41.422;2024-01-30T12:20:10;7.28;;;3.00;;
84933;SDS011;75195;56.858;41.422;2024-01-30T12:22:38;5.30;;;2.78;;
84933;SDS011;75195;56.858;41.422;2024-01-30T12:25:12;10.73;;;4.55;;
84933;SDS011;75195;56.858;41.422;2024-01-30T12:27:41;12.43;;;6.18;;
84933;SDS011;75195;56.858;41.422;2024-01-30T12:30:10;13.30;;;6.28;;
84933;SDS011;75195;56.858;41.422;2024-01-30T12:32:41;18.83;;;9.10;;
84933;SDS011;75195;56.858;41.422;2024-01-30T12:35:10;11.93;;;5.57;;
84933;SDS011;75195;56.858;41.422;2024-01-30T12:37:40;11.52;;;5.70;;
84933;SDS011;75195;56.858;41.422;2024-01-30T12:40:07;12.75;;;5.88;;
84933;SDS011;75195;56.858;41.422;2024-01-30T12:42:35;11.38;;;5.78;;
84933;SDS011;75195;56.858;41.422;2024-01-30T12:45:02;8.43;;;3.67;;
84933;SDS011;75195;56.858;41.422;2024-01-30T12:47:30;9.38;;;4.20;;
84933;SDS011;75195;56.858;41.422;2024-01-30T12:49:57;10.30;;;4.97;;
84933;SDS011;75195;56.858;41.422;2024-01-30T12:52:24;14.55;;;5.90;;
84933;SDS011;75195;56.858;41.422;2024-01-30T12:54:52;11.48;;;5.13;;
84933;SDS011;75195;56.858;41.422;2024-01-30T12:57:18;10.15;;;4.65;;
84933;SDS011;75195;56.858;41.422;2024-01-30T12:59:45;14.48;;;7.15;;
84933;SDS011;75195;56.858;41.422;2024-01-30T13:02:14;10.70;;;6.80;;
84933;SDS011;75195;56.858;41.422;2024-01-30T13:04:41;10.48;;;5.75;;
84933;SDS011;75195;56.858;41.422;2024-01-30T13:07:08;18.65;;;7.90;;
84933;SDS011;75195;56.858;41.422;2024-01-30T13:09:34;11.23;;;5.65;;
84933;SDS011;75195;56.858;41.422;2024-01-30T13:12:00;9.57;;;4.65;;
84933;SDS011;75195;56.858;41.422;2024-01-30T13:14:27;11.40;;;4.95;;
84933;SDS011;75195;56.858;41.422;2024-01-30T13:16:54;12.60;;;6.90;;
84933;SDS011;75195;56.858;41.422;2024-01-30T13:19:20;17.77;;;9.02;;
84933;SDS011;75195;56.858;41.422;2024-01-30T13:21:47;16.90;;;7.40;;
84933;SDS011;75195;56.858;41.422;2024-01-30T13:24:13;19.40;;;10.15;;
84933;SDS011;75195;56.858;41.422;2024-01-30T13:26:42;13.57;;;8.32;;
84933;SDS011;75195;56.858;41.422;2024-01-30T13:29:08;19.80;;;8.75;;
84933;SDS011;75195;56.858;41.422;2024-01-30T13:31:34;20.50;;;8.88;;
84933;SDS011;75195;56.858;41.422;2024-01-30T13:34:01;15.65;;;6.90;;
84933;SDS011;75195;56.858;41.422;2024-01-30T13:36:27;13.05;;;5.78;;
84933;SDS011;75195;56.858;41.422;2024-01-30T13:38:54;12.48;;;5.43;;
84933;SDS011;75195;56.858;41.422;2024-01-30T13:41:20;9.75;;;4.30;;
84933;SDS011;75195;56.858;41.422;2024-01-30T13:43:48;10.27;;;4.65;;
84933;SDS011;75195;56.858;41.422;2024-01-30T13:46:15;11.02;;;5.05;;
84933;SDS011;75195;56.858;41.422;2024-01-30T13:48:41;14.90;;;6.28;;
84933;SDS011;75195;56.858;41.422;2024-01-30T13:51:08;11.93;;;5.53;;
84933;SDS011;75195;56.858;41.422;2024-01-30T13:53:34;13.90;;;6.57;;
84933;SDS011;75195;56.858;41.422;2024-01-30T13:56:00;14.02;;;6.57;;
84933;SDS011;75195;56.858;41.422;2024-01-30T13:58:27;16.77;;;7.35;;
84933;SDS011;75195;56.858;41.422;2024-01-30T14:00:55;27.15;;;10.52;;
84933;SDS011;75195;56.858;41.422;2024-01-30T14:03:21;24.75;;;9.35;;
84933;SDS011;75195;56.858;41.422;2024-01-30T14:05:47;24.98;;;11.68;;
84933;SDS011;75195;56.858;41.422;2024-01-30T14:08:14;26.13;;;9.88;;
84933;SDS011;75195;56.858;41.422;2024-01-30T14:10:41;27.55;;;9.68;;
84933;SDS011;75195;56.858;41.422;2024-01-30T14:13:07;23.52;;;9.48;;
84933;SDS011;75195;56.858;41.422;2024-01-30T14:15:34;25.02;;;10.00;;
84933;SDS011;75195;56.858;41.422;2024-01-30T14:18:00;18.35;;;8.85;;
84933;SDS011;75195;56.858;41.422;2024-01-30T14:20:27;20.40;;;9.65;;
84933;SDS011;75195;56.858;41.422;2024-01-30T14:22:54;23.52;;;10.05;;
84933;SDS011;75195;56.858;41.422;2024-01-30T14:25:21;20.05;;;8.88;;
84933;SDS011;75195;56.858;41.422;2024-01-30T14:27:47;22.63;;;9.38;;
84933;SDS011;75195;56.858;41.422;2024-01-30T14:30:14;25.15;;;9.57;;
84933;SDS011;75195;56.858;41.422;2024-01-30T14:32:40;21.48;;;8.20;;
84933;SDS011;75195;56.858;41.422;2024-01-30T14:35:08;19.83;;;7.50;;